Time;durP1;ratioP1;P1;durP2;ratioP2;P2;SDS_P1;SDS_P2;PMS_P1;PMS_P2;Temp;Humidity;BMP_temperature;BMP_pressure;BME280_temperature;BME280_humidity;BME280_pressure;Samples;Min_cycle;Max_cycle;Signal;HPM_P1;HPM_P2
2023/01/19 00:00:09;;;;;;;7.10;0.90;;;2.60;99.90;;;;;;5039322;28;20059;-72
2023/01/19 00:02:35;;;;;;;10.25;1.10;;;2.60;99.90;;;;;;5032213;28;20033;-72
2023/01/19 00:05:02;;;;;;;7.30;1.02;;;2.90;99.90;;;;;;5020648;28;20057;-72
2023/01/19 00:07:32;;;;;;;5.70;0.93;;;2.60;99.90;;;;;;5037679;28;20045;-73
2023/01/19 00:09:58;;;;;;;5.97;0.90;;;2.60;99.90;;;;;;5017653;28;20060;-72
2023/01/19 00:12:26;;;;;;;8.85;0.80;;;2.60;99.90;;;;;;5033402;28;20063;-72
2023/01/19 00:14:51;;;;;;;6.03;0.80;;;2.60;99.90;;;;;;5030738;28;20098;-72
2023/01/19 00:17:17;;;;;;;7.38;1.10;;;2.60;99.90;;;;;;5017301;28;20049;-73
2023/01/19 00:19:43;;;;;;;6.65;1.30;;;2.60;99.90;;;;;;5027724;28;20076;-72
2023/01/19 00:22:09;;;;;;;3.58;0.98;;;2.80;99.90;;;;;;5025855;28;20039;-73
2023/01/19 00:24:34;;;;;;;3.70;0.63;;;2.60;99.90;;;;;;5056531;28;20113;-73
2023/01/19 00:27:02;;;;;;;3.28;0.80;;;2.60;99.90;;;;;;5021696;28;20044;-73
2023/01/19 00:29:32;;;;;;;6.20;2.13;;;2.60;99.90;;;;;;5056320;28;20044;-74
2023/01/19 00:32:02;;;;;;;5.75;0.90;;;2.60;99.90;;;;;;5037013;28;20049;-73
2023/01/19 00:34:35;;;;;;;9.48;0.68;;;2.60;99.90;;;;;;5042702;28;20051;-72
2023/01/19 00:37:10;;;;;;;6.72;1.23;;;2.60;99.90;;;;;;5011104;28;20081;-73
2023/01/19 00:39:36;;;;;;;5.50;0.73;;;2.60;99.90;;;;;;5032407;28;20153;-72
2023/01/19 00:44:46;;;;;;;8.48;1.00;;;2.60;99.90;;;;;;5029586;28;20051;-72
2023/01/19 00:47:12;;;;;;;5.60;1.00;;;2.60;99.90;;;;;;5054528;28;20033;-72
2023/01/19 00:49:38;;;;;;;5.57;0.93;;;2.60;99.90;;;;;;5031828;28;20041;-73
2023/01/19 00:52:04;;;;;;;8.07;0.75;;;2.70;99.90;;;;;;5048893;28;20052;-73
2023/01/19 00:54:30;;;;;;;6.80;0.85;;;2.60;99.90;;;;;;5037861;28;20040;-73
2023/01/19 00:56:58;;;;;;;7.60;0.65;;;2.70;99.90;;;;;;5037227;28;20101;-73
2023/01/19 00:59:24;;;;;;;4.30;0.70;;;2.60;99.90;;;;;;5038115;28;20118;-72
2023/01/19 01:01:50;;;;;;;3.97;0.50;;;2.60;99.90;;;;;;5054454;28;20107;-72
2023/01/19 01:04:16;;;;;;;5.32;0.80;;;2.60;99.90;;;;;;5046992;28;20077;-73
2023/01/19 01:06:41;;;;;;;4.22;1.08;;;2.70;99.90;;;;;;5026319;28;20131;-72
2023/01/19 01:09:10;;;;;;;5.75;0.93;;;2.60;99.90;;;;;;5040742;28;20036;-72
2023/01/19 01:11:42;;;;;;;7.45;0.70;;;2.60;99.90;;;;;;5057615;28;20429;-72
2023/01/19 01:14:12;;;;;;;6.72;0.73;;;2.70;99.90;;;;;;5044218;28;20406;-72
2023/01/19 01:16:41;;;;;;;4.55;0.80;;;2.70;99.90;;;;;;5052981;28;20574;-72
2023/01/19 01:19:09;;;;;;;7.00;0.70;;;2.70;99.90;;;;;;5030479;28;20040;-73
2023/01/19 01:21:36;;;;;;;4.45;0.88;;;2.70;99.90;;;;;;5017039;28;20553;-72
2023/01/19 01:24:02;;;;;;;4.75;0.70;;;2.70;99.90;;;;;;5040011;28;20045;-72
2023/01/19 01:26:28;;;;;;;6.88;0.98;;;2.70;99.90;;;;;;5026955;28;20387;-72
2023/01/19 01:28:54;;;;;;;6.65;1.00;;;2.70;99.90;;;;;;5029191;28;20402;-73
2023/01/19 01:31:20;;;;;;;8.30;0.85;;;2.70;99.90;;;;;;5031193;28;20047;-72
2023/01/19 01:33:45;;;;;;;8.75;1.00;;;2.70;99.90;;;;;;5040385;28;20417;-73
2023/01/19 01:36:11;;;;;;;5.85;1.65;;;2.70;99.90;;;;;;5015303;28;20040;-72
2023/01/19 01:38:41;;;;;;;8.82;1.15;;;2.80;99.90;;;;;;5058260;28;20040;-72
2023/01/19 01:41:07;;;;;;;6.60;1.00;;;2.80;99.90;;;;;;5042508;28;20056;-72
2023/01/19 01:43:45;;;;;;;9.75;1.27;;;2.80;99.90;;;;;;5038928;28;20619;-73
2023/01/19 01:46:14;;;;;;;13.02;1.17;;;3.30;99.90;;;;;;5036365;28;20107;-73
2023/01/19 01:48:43;;;;;;;4.63;1.00;;;2.90;99.90;;;;;;5037200;28;20044;-74
2023/01/19 01:51:28;;;;;;;7.70;1.10;;;2.90;99.90;;;;;;5055789;28;21929;-72
2023/01/19 01:53:53;;;;;;;5.38;0.90;;;2.90;99.90;;;;;;5049988;28;20036;-73
2023/01/19 01:56:28;;;;;;;7.70;1.45;;;2.90;99.90;;;;;;5021627;28;20094;-72
2023/01/19 01:58:53;;;;;;;10.45;1.00;;;3.30;99.90;;;;;;5050554;28;20068;-72
2023/01/19 02:04:03;;;;;;;5.47;1.02;;;3.00;99.90;;;;;;5042519;28;20048;-72
2023/01/19 02:06:29;;;;;;;6.82;1.05;;;3.00;99.90;;;;;;5036085;28;20052;-72
2023/01/19 02:14:36;;;;;;;8.40;1.08;;;3.00;99.90;;;;;;5055160;28;20049;-72
2023/01/19 02:17:02;;;;;;;5.07;1.52;;;3.10;99.90;;;;;;5028007;28;20295;-72
2023/01/19 02:19:42;;;;;;;5.28;2.20;;;3.00;99.90;;;;;;5026690;28;20075;-70
2023/01/19 02:22:18;;;;;;;7.28;1.98;;;3.00;99.90;;;;;;5031253;28;20052;-72
2023/01/19 02:24:44;;;;;;;8.35;2.20;;;3.00;99.90;;;;;;5027456;28;20128;-72
2023/01/19 02:27:11;;;;;;;5.72;2.22;;;3.00;99.90;;;;;;5037673;28;20124;-72
2023/01/19 02:29:38;;;;;;;6.22;2.20;;;3.00;99.90;;;;;;5019927;28;20032;-72
2023/01/19 02:32:04;;;;;;;8.40;2.70;;;3.00;99.90;;;;;;5034502;28;20598;-72
2023/01/19 02:34:31;;;;;;;7.95;2.70;;;3.00;99.90;;;;;;5012873;28;20401;-72
2023/01/19 02:37:05;;;;;;;5.32;2.45;;;3.00;99.90;;;;;;5041939;28;20049;-73
2023/01/19 02:39:40;;;;;;;8.13;2.38;;;3.00;99.90;;;;;;5031445;28;20501;-72
2023/01/19 02:42:11;;;;;;;8.88;2.55;;;3.00;99.90;;;;;;5030771;28;20120;-72
2023/01/19 02:44:38;;;;;;;8.50;2.78;;;3.00;99.90;;;;;;5016880;28;20516;-72
2023/01/19 02:47:04;;;;;;;5.63;2.63;;;2.90;99.90;;;;;;5019360;28;20056;-72
2023/01/19 02:49:30;;;;;;;7.90;2.58;;;2.90;99.90;;;;;;5037388;28;20036;-73
2023/01/19 02:51:57;;;;;;;7.13;2.60;;;2.90;99.90;;;;;;5046209;28;20040;-71
2023/01/19 02:54:37;;;;;;;5.20;2.78;;;2.90;99.90;;;;;;5030034;28;20036;-72
2023/01/19 02:57:28;;;;;;;7.03;2.83;;;2.90;99.90;;;;;;5052689;28;20044;-72
2023/01/19 03:00:06;;;;;;;6.72;2.67;;;3.10;99.90;;;;;;5040172;28;20048;-72
2023/01/19 03:02:54;;;;;;;9.77;3.00;;;2.90;99.90;;;;;;5034797;28;20041;-72
2023/01/19 03:05:52;;;;;;;8.45;2.95;;;2.90;99.90;;;;;;5028152;28;20036;-71
2023/01/19 03:08:28;;;;;;;7.55;2.97;;;2.90;99.90;;;;;;5010824;28;20052;-72
2023/01/19 03:11:06;;;;;;;6.97;3.00;;;3.00;99.90;;;;;;5021387;28;20093;-72
2023/01/19 03:13:59;;;;;;;11.73;3.28;;;2.90;99.90;;;;;;5032793;28;20132;-72
2023/01/19 03:16:38;;;;;;;8.52;2.80;;;2.90;99.90;;;;;;5055575;28;20060;-72
2023/01/19 03:19:30;;;;;;;7.18;2.95;;;2.90;99.90;;;;;;5038368;28;20033;-72
2023/01/19 03:22:09;;;;;;;6.45;2.72;;;3.00;99.90;;;;;;5030771;28;20113;-71
2023/01/19 03:24:43;;;;;;;9.65;2.88;;;2.90;99.90;;;;;;5019158;28;20325;-72
2023/01/19 03:27:15;;;;;;;7.65;2.97;;;2.90;99.90;;;;;;5024507;28;20116;-72
2023/01/19 03:29:47;;;;;;;8.93;2.40;;;2.90;99.90;;;;;;5037098;28;20856;-72
2023/01/19 03:32:16;;;;;;;6.30;2.72;;;2.90;99.90;;;;;;5028622;28;20053;-72
2023/01/19 03:34:44;;;;;;;7.32;2.60;;;2.90;99.90;;;;;;5028369;28;20577;-72
2023/01/19 03:37:12;;;;;;;7.07;2.50;;;2.90;99.90;;;;;;5053154;28;20040;-72
2023/01/19 03:39:38;;;;;;;5.00;2.33;;;2.90;99.90;;;;;;5023565;28;20068;-72
2023/01/19 03:42:12;;;;;;;7.50;2.47;;;2.90;99.90;;;;;;5038865;28;20129;-72
2023/01/19 03:44:41;;;;;;;5.25;2.10;;;2.90;99.90;;;;;;5017060;28;20111;-73
2023/01/19 03:47:08;;;;;;;8.73;2.58;;;2.90;99.90;;;;;;5028249;28;20057;-72
2023/01/19 03:49:36;;;;;;;10.15;2.72;;;3.00;99.90;;;;;;5030782;28;20036;-72
2023/01/19 03:52:03;;;;;;;6.40;2.60;;;3.20;99.90;;;;;;5033723;28;20521;-72
2023/01/19 03:54:28;;;;;;;7.15;2.83;;;2.90;99.90;;;;;;5052897;28;20079;-72
2023/01/19 03:56:54;;;;;;;7.82;2.80;;;2.90;99.90;;;;;;5027891;28;20120;-72
2023/01/19 03:59:20;;;;;;;10.07;2.95;;;3.50;99.90;;;;;;5037240;28;20080;-72
2023/01/19 04:01:47;;;;;;;8.20;2.20;;;2.90;99.90;;;;;;5033391;28;20774;-72
2023/01/19 04:04:14;;;;;;;6.15;2.60;;;3.20;99.90;;;;;;5028514;28;20070;-72
2023/01/19 04:06:41;;;;;;;6.13;2.42;;;3.40;99.90;;;;;;5031582;28;20040;-72
2023/01/19 04:09:07;;;;;;;7.07;2.47;;;2.90;99.90;;;;;;5017165;28;21969;-72
2023/01/19 04:11:33;;;;;;;7.22;2.50;;;2.90;99.90;;;;;;5033279;28;20044;-72
2023/01/19 04:13:59;;;;;;;5.88;2.30;;;3.00;99.90;;;;;;5028604;28;20183;-72
2023/01/19 04:16:24;;;;;;;5.95;2.08;;;3.10;99.90;;;;;;5035772;28;20508;-72
2023/01/19 04:18:51;;;;;;;4.57;2.10;;;3.00;99.90;;;;;;5031160;28;20186;-73
2023/01/19 04:21:19;;;;;;;5.57;2.05;;;3.00;99.90;;;;;;5013946;28;20083;-73
2023/01/19 04:23:45;;;;;;;5.88;2.60;;;3.00;99.90;;;;;;5025272;28;20041;-73
2023/01/19 04:26:11;;;;;;;7.25;2.40;;;3.00;99.90;;;;;;5036718;28;20036;-73
2023/01/19 04:28:37;;;;;;;6.57;2.20;;;3.00;99.90;;;;;;5027685;28;20042;-73
2023/01/19 04:31:05;;;;;;;4.28;1.73;;;3.00;99.90;;;;;;5011120;28;20103;-73
2023/01/19 04:33:30;;;;;;;6.45;1.70;;;3.00;99.90;;;;;;5035445;28;20788;-73
2023/01/19 04:35:56;;;;;;;9.20;1.67;;;3.00;99.90;;;;;;5012571;28;20107;-73
2023/01/19 04:38:23;;;;;;;4.85;1.20;;;3.00;99.90;;;;;;5029185;28;20067;-71
2023/01/19 04:40:51;;;;;;;5.43;1.52;;;3.00;99.90;;;;;;5040336;28;20078;-73
2023/01/19 04:43:18;;;;;;;5.40;1.17;;;3.00;99.90;;;;;;5023632;28;20055;-72
2023/01/19 04:45:44;;;;;;;3.55;0.90;;;3.10;99.90;;;;;;5038239;28;20052;-72
2023/01/19 04:48:11;;;;;;;4.15;1.10;;;3.00;99.90;;;;;;5035565;28;20057;-73
2023/01/19 04:50:37;;;;;;;5.22;0.80;;;3.00;99.90;;;;;;5038255;28;20053;-72
2023/01/19 04:53:03;;;;;;;4.97;0.60;;;3.00;99.90;;;;;;5029325;28;20055;-73
2023/01/19 04:55:29;;;;;;;5.00;0.60;;;3.00;99.90;;;;;;5010640;28;20033;-72
2023/01/19 04:57:55;;;;;;;3.38;1.00;;;3.00;99.90;;;;;;5023835;28;20048;-72
2023/01/19 05:00:23;;;;;;;1.95;0.50;;;3.00;99.90;;;;;;5024496;28;20041;-72
2023/01/19 05:02:49;;;;;;;3.95;0.43;;;3.00;99.90;;;;;;5038735;28;20044;-73
2023/01/19 05:05:15;;;;;;;3.00;0.50;;;3.00;99.90;;;;;;5019042;28;20076;-73
2023/01/19 05:07:42;;;;;;;6.88;0.63;;;3.00;99.90;;;;;;5038944;28;20037;-72
2023/01/19 05:10:08;;;;;;;2.88;0.60;;;3.10;99.90;;;;;;5029042;28;20117;-71
2023/01/19 05:12:35;;;;;;;6.95;0.50;;;3.00;99.90;;;;;;5035521;28;20041;-72
2023/01/19 05:15:00;;;;;;;4.30;0.70;;;3.90;99.90;;;;;;5012386;28;20123;-72
2023/01/19 05:17:27;;;;;;;12.95;1.33;;;3.00;99.90;;;;;;5035215;28;20359;-73
2023/01/19 05:19:52;;;;;;;2.72;0.40;;;3.20;99.90;;;;;;5014621;28;20049;-73
2023/01/19 05:22:18;;;;;;;8.65;0.80;;;3.00;99.90;;;;;;5035928;28;20041;-72
2023/01/19 05:24:44;;;;;;;4.30;0.60;;;3.00;99.90;;;;;;5041621;28;20094;-72
2023/01/19 05:27:10;;;;;;;11.27;1.25;;;3.00;99.90;;;;;;5036519;28;20040;-72
2023/01/19 05:29:36;;;;;;;2.40;0.52;;;2.90;99.90;;;;;;5040087;28;20040;-72
2023/01/19 05:32:01;;;;;;;10.07;0.70;;;2.90;99.90;;;;;;5043295;28;20080;-73
2023/01/19 05:34:28;;;;;;;6.13;0.55;;;3.30;99.90;;;;;;5021009;28;20049;-72
2023/01/19 05:36:53;;;;;;;5.60;0.43;;;3.00;99.90;;;;;;5020511;28;20075;-72
2023/01/19 05:39:19;;;;;;;10.32;1.10;;;3.00;99.90;;;;;;5036162;28;20506;-72
2023/01/19 05:41:45;;;;;;;6.15;0.80;;;2.90;99.90;;;;;;5027519;28;20045;-72
2023/01/19 05:44:11;;;;;;;4.60;0.85;;;3.00;99.90;;;;;;5038185;28;20045;-72
2023/01/19 05:46:38;;;;;;;3.80;0.38;;;3.00;99.90;;;;;;5041022;28;20068;-72
2023/01/19 05:49:06;;;;;;;5.40;0.57;;;2.90;99.90;;;;;;5019377;28;20088;-72
2023/01/19 05:51:37;;;;;;;2.00;0.68;;;3.00;99.90;;;;;;5035702;28;20052;-73
2023/01/19 05:54:07;;;;;;;3.63;0.40;;;3.00;99.90;;;;;;5035646;28;20049;-72
2023/01/19 05:56:33;;;;;;;2.40;0.50;;;3.70;99.90;;;;;;5035048;28;20090;-72
2023/01/19 05:58:59;;;;;;;5.07;0.60;;;3.00;99.90;;;;;;5029462;28;20053;-72
2023/01/19 06:01:25;;;;;;;5.82;0.70;;;3.00;99.90;;;;;;5036151;28;20052;-72
2023/01/19 06:03:51;;;;;;;6.38;0.60;;;2.90;99.90;;;;;;5034338;28;20454;-72
2023/01/19 06:06:17;;;;;;;5.85;0.70;;;2.90;99.90;;;;;;5032506;28;20052;-72
2023/01/19 06:08:43;;;;;;;1.33;0.40;;;2.90;99.90;;;;;;5034780;28;20063;-72
2023/01/19 06:11:09;;;;;;;7.80;1.05;;;2.90;99.90;;;;;;5020340;28;20056;-72
2023/01/19 06:13:35;;;;;;;8.40;0.90;;;2.90;99.90;;;;;;5058720;28;20048;-72
2023/01/19 06:16:02;;;;;;;7.38;0.98;;;2.90;99.90;;;;;;5038070;28;20059;-72
2023/01/19 06:18:28;;;;;;;10.38;1.13;;;2.90;99.90;;;;;;5035593;28;20041;-72
2023/01/19 06:21:01;;;;;;;6.68;0.90;;;2.90;99.90;;;;;;5051838;28;20037;-72
2023/01/19 06:23:30;;;;;;;8.80;1.45;;;2.90;99.90;;;;;;5015243;28;20052;-72
2023/01/19 06:25:56;;;;;;;12.82;1.30;;;2.80;99.90;;;;;;5009495;28;20048;-74
2023/01/19 06:28:22;;;;;;;8.38;1.23;;;2.80;99.90;;;;;;5046410;28;20120;-72
2023/01/19 06:30:52;;;;;;;6.60;1.83;;;3.00;99.90;;;;;;5013197;28;20055;-73
2023/01/19 06:33:19;;;;;;;10.00;1.38;;;2.90;99.90;;;;;;5032315;28;20037;-72
2023/01/19 06:35:49;;;;;;;10.25;1.52;;;2.90;99.90;;;;;;5030715;28;20048;-73
2023/01/19 06:38:17;;;;;;;10.10;1.60;;;2.90;99.90;;;;;;5047120;28;20154;-73
2023/01/19 06:40:43;;;;;;;9.57;1.77;;;2.90;99.90;;;;;;5026787;28;20446;-72
2023/01/19 06:43:09;;;;;;;12.43;1.40;;;2.90;99.90;;;;;;5031370;28;20131;-72
2023/01/19 06:45:37;;;;;;;12.88;1.48;;;3.10;99.90;;;;;;5023136;28;20110;-73
2023/01/19 06:48:03;;;;;;;8.90;1.27;;;2.90;99.90;;;;;;5039916;28;20072;-73
2023/01/19 06:50:28;;;;;;;10.70;1.75;;;2.90;99.90;;;;;;5023382;28;22215;-73
2023/01/19 06:52:54;;;;;;;10.05;1.55;;;3.00;99.90;;;;;;5019146;28;20151;-72
2023/01/19 06:55:20;;;;;;;16.02;1.30;;;2.90;99.90;;;;;;5057120;28;20669;-73
2023/01/19 06:57:46;;;;;;;13.75;1.90;;;2.90;99.90;;;;;;5019693;28;20036;-72
2023/01/19 07:00:13;;;;;;;17.17;1.95;;;2.90;99.90;;;;;;5053454;28;20098;-72
2023/01/19 07:02:42;;;;;;;10.90;1.02;;;3.00;99.90;;;;;;5023807;28;20055;-73
2023/01/19 07:05:10;;;;;;;12.02;1.20;;;3.00;99.90;;;;;;5041236;28;20119;-72
2023/01/19 07:07:38;;;;;;;13.38;2.10;;;3.10;99.90;;;;;;5037227;28;20438;-72
2023/01/19 07:10:06;;;;;;;16.88;1.98;;;3.10;99.90;;;;;;5037690;28;20072;-72
2023/01/19 07:12:33;;;;;;;10.82;1.67;;;3.00;99.90;;;;;;5040012;28;20056;-73
2023/01/19 07:14:59;;;;;;;15.52;2.58;;;3.10;99.90;;;;;;5039969;28;20045;-73
2023/01/19 07:17:25;;;;;;;15.95;2.53;;;3.10;99.90;;;;;;5039437;28;20052;-72
2023/01/19 07:19:50;;;;;;;12.07;2.03;;;3.10;99.90;;;;;;5040367;28;20519;-73
2023/01/19 07:22:16;;;;;;;20.83;1.90;;;3.10;99.90;;;;;;5040815;28;20075;-73
2023/01/19 07:24:42;;;;;;;16.83;1.75;;;3.10;99.90;;;;;;5038882;28;20055;-73
2023/01/19 07:27:10;;;;;;;13.93;2.05;;;3.40;99.90;;;;;;5036768;28;20048;-73
2023/01/19 07:29:36;;;;;;;15.43;1.60;;;4.00;99.90;;;;;;5038460;28;20052;-72
2023/01/19 07:32:02;;;;;;;16.00;1.63;;;3.70;99.90;;;;;;5058460;28;20037;-72
2023/01/19 07:34:28;;;;;;;12.32;2.03;;;3.80;99.90;;;;;;5056398;28;20406;-72
2023/01/19 07:36:55;;;;;;;12.23;2.00;;;3.20;99.90;;;;;;5037268;28;20044;-72
2023/01/19 07:39:23;;;;;;;18.42;1.85;;;3.20;99.90;;;;;;5039173;28;20135;-73
2023/01/19 07:41:49;;;;;;;18.77;1.92;;;3.20;99.90;;;;;;5020582;28;20135;-72
2023/01/19 07:44:15;;;;;;;18.10;1.85;;;3.30;99.90;;;;;;5022489;28;20044;-72
2023/01/19 07:46:42;;;;;;;6.22;1.13;;;3.30;99.90;;;;;;5055774;28;20044;-73
2023/01/19 07:49:07;;;;;;;14.65;2.25;;;3.30;99.90;;;;;;5038599;28;20689;-73
2023/01/19 07:51:33;;;;;;;17.88;2.60;;;3.30;99.90;;;;;;5024047;28;20102;-72
2023/01/19 07:53:59;;;;;;;14.52;2.13;;;3.30;99.90;;;;;;5054582;28;20076;-72
2023/01/19 07:56:26;;;;;;;13.88;1.80;;;3.30;99.90;;;;;;5035613;28;20098;-72
2023/01/19 07:58:52;;;;;;;19.60;1.77;;;3.40;99.90;;;;;;5010984;28;20170;-73
2023/01/19 08:01:18;;;;;;;11.88;1.58;;;3.40;99.90;;;;;;5051016;28;20068;-73
2023/01/19 08:03:46;;;;;;;13.38;1.60;;;3.40;99.90;;;;;;5027441;28;21670;-73
2023/01/19 08:06:20;;;;;;;15.68;1.88;;;3.40;99.90;;;;;;5033354;28;20122;-72
2023/01/19 08:08:46;;;;;;;17.50;2.63;;;3.40;99.90;;;;;;5038585;28;20127;-72
2023/01/19 08:11:12;;;;;;;17.00;1.55;;;3.40;99.90;;;;;;5043915;28;20045;-72
2023/01/19 08:13:38;;;;;;;15.27;1.92;;;3.50;99.90;;;;;;5057502;28;20048;-73
2023/01/19 08:16:04;;;;;;;18.17;2.35;;;3.40;99.90;;;;;;5042005;28;20048;-72
2023/01/19 08:18:30;;;;;;;24.35;2.58;;;3.40;99.90;;;;;;5040170;28;20041;-73
2023/01/19 08:20:58;;;;;;;18.23;1.52;;;4.00;99.90;;;;;;5040920;28;20048;-72
2023/01/19 08:23:24;;;;;;;20.42;2.28;;;3.40;99.90;;;;;;5018385;28;20084;-72
2023/01/19 08:25:50;;;;;;;23.42;2.05;;;3.40;99.90;;;;;;5057087;28;20044;-73
2023/01/19 08:28:16;;;;;;;16.88;2.70;;;3.40;99.90;;;;;;5039501;28;20049;-73
2023/01/19 08:30:43;;;;;;;17.13;2.17;;;3.80;99.90;;;;;;5059708;28;20044;-73
2023/01/19 08:33:10;;;;;;;15.82;2.63;;;3.40;99.90;;;;;;5040939;28;20761;-73
2023/01/19 08:35:39;;;;;;;18.80;2.40;;;3.40;99.90;;;;;;5025128;28;20048;-72
2023/01/19 08:38:06;;;;;;;16.67;2.83;;;3.30;99.90;;;;;;5060734;28;20032;-73
2023/01/19 08:40:35;;;;;;;27.77;4.35;;;3.40;99.90;;;;;;5039942;28;20746;-72
2023/01/19 08:43:06;;;;;;;22.42;2.47;;;3.40;99.90;;;;;;5026073;28;20071;-73
2023/01/19 08:45:45;;;;;;;;;;;3.30;99.90;;;;;;5044856;28;20044;-73
2023/01/19 08:48:12;;;;;;;15.30;1.92;;;3.30;99.90;;;;;;5038161;28;19932;-73
2023/01/19 08:50:38;;;;;;;16.73;2.10;;;3.30;99.90;;;;;;5055367;28;20087;-73
2023/01/19 08:53:07;;;;;;;14.65;2.05;;;3.50;99.90;;;;;;5054771;28;20526;-73
2023/01/19 08:55:34;;;;;;;20.95;2.38;;;3.30;99.90;;;;;;5055404;28;20148;-73
2023/01/19 08:58:02;;;;;;;16.77;2.70;;;3.30;99.90;;;;;;5041445;28;20496;-72
2023/01/19 09:00:30;;;;;;;18.70;2.38;;;3.30;99.90;;;;;;5022276;28;20056;-73
2023/01/19 09:02:57;;;;;;;26.80;2.22;;;3.50;99.90;;;;;;5022148;28;20036;-72
2023/01/19 09:05:23;;;;;;;16.95;2.42;;;4.10;99.90;;;;;;5042227;28;20048;-73
2023/01/19 09:07:50;;;;;;;23.15;3.08;;;3.30;99.90;;;;;;5053380;28;20052;-72
2023/01/19 09:10:17;;;;;;;20.52;2.45;;;3.30;99.90;;;;;;5030213;28;20045;-73
2023/01/19 09:12:43;;;;;;;20.48;2.30;;;3.30;99.90;;;;;;5042413;28;20648;-73
2023/01/19 09:15:12;;;;;;;12.30;1.98;;;3.30;99.90;;;;;;5018862;28;20080;-73
2023/01/19 09:17:40;;;;;;;19.80;2.58;;;3.30;99.90;;;;;;5038971;28;20041;-72
2023/01/19 09:20:06;;;;;;;16.77;2.10;;;3.30;99.90;;;;;;5035799;28;20469;-73
2023/01/19 09:22:32;;;;;;;13.13;1.77;;;3.30;99.90;;;;;;5035318;28;20324;-72
2023/01/19 09:24:59;;;;;;;16.35;1.83;;;3.30;99.90;;;;;;5036474;28;20045;-72
2023/01/19 09:27:24;;;;;;;21.73;2.53;;;3.30;99.90;;;;;;5032732;28;20053;-73
2023/01/19 09:29:53;;;;;;;18.20;2.30;;;3.50;99.90;;;;;;5030576;28;20529;-72
2023/01/19 09:32:20;;;;;;;14.18;1.60;;;3.30;99.90;;;;;;5035469;28;20087;-72
2023/01/19 09:34:46;;;;;;;21.15;2.53;;;3.30;99.90;;;;;;5036077;28;20047;-72
2023/01/19 09:37:14;;;;;;;13.57;1.88;;;3.30;99.90;;;;;;5037626;28;20507;-72
2023/01/19 09:39:40;;;;;;;22.48;2.55;;;3.40;99.90;;;;;;5038997;28;20497;-72
2023/01/19 09:42:17;;;;;;;21.58;2.42;;;3.40;99.90;;;;;;5035461;28;20037;-72
2023/01/19 09:44:46;;;;;;;10.07;1.70;;;3.40;99.90;;;;;;5035992;28;20513;-73
2023/01/19 09:47:18;;;;;;;16.33;2.08;;;3.50;99.90;;;;;;5037237;28;20064;-72
2023/01/19 09:50:04;;;;;;;10.05;1.83;;;3.50;99.90;;;;;;5036819;28;20045;-73
2023/01/19 09:52:34;;;;;;;13.52;2.67;;;3.50;99.90;;;;;;5018987;28;20465;-73
2023/01/19 09:55:00;;;;;;;15.52;1.45;;;3.80;99.90;;;;;;5037487;28;20048;-72
2023/01/19 09:57:27;;;;;;;18.00;1.90;;;3.60;99.90;;;;;;5021876;28;20072;-71
2023/01/19 09:59:58;;;;;;;10.52;1.38;;;3.90;99.90;;;;;;5039048;28;20176;-73
2023/01/19 10:02:41;;;;;;;19.13;1.92;;;3.60;99.90;;;;;;5036262;28;21377;-73
2023/01/19 10:05:31;;;;;;;14.20;1.95;;;3.60;99.90;;;;;;5035266;28;20768;-72
2023/01/19 10:08:15;;;;;;;19.45;2.05;;;3.60;99.90;;;;;;5037790;28;20421;-72
2023/01/19 10:10:46;;;;;;;16.55;1.98;;;3.70;99.90;;;;;;5033352;28;20699;-73
2023/01/19 10:13:32;;;;;;;;;;;3.70;99.90;;;;;;5049270;28;20057;-73
2023/01/19 10:16:06;;;;;;;10.27;1.30;;;3.70;99.90;;;;;;5018761;28;20024;-72
2023/01/19 10:18:50;;;;;;;18.70;1.52;;;3.70;99.90;;;;;;5037290;28;20044;-73
2023/01/19 10:21:39;;;;;;;14.38;1.75;;;3.70;99.90;;;;;;5021569;28;20231;-72
2023/01/19 10:24:12;;;;;;;9.98;1.50;;;3.60;99.90;;;;;;5036132;28;20041;-72
2023/01/19 10:26:46;;;;;;;16.02;4.07;;;3.60;99.90;;;;;;5021227;28;20056;-72
2023/01/19 10:29:24;;;;;;;21.30;2.92;;;3.70;99.90;;;;;;5020131;28;20144;-73
2023/01/19 10:31:54;;;;;;;14.38;1.70;;;3.60;99.90;;;;;;5019203;28;20053;-72
2023/01/19 10:34:21;;;;;;;11.15;1.90;;;3.70;99.90;;;;;;5038085;28;20041;-73
2023/01/19 10:36:49;;;;;;;13.05;1.83;;;3.70;99.90;;;;;;5034775;28;20538;-72
2023/01/19 10:39:17;;;;;;;10.05;1.73;;;3.80;99.90;;;;;;5036079;28;20044;-73
2023/01/19 10:41:51;;;;;;;9.85;1.52;;;3.80;99.90;;;;;;5022823;28;20044;-73
2023/01/19 10:44:26;;;;;;;12.32;1.45;;;3.80;99.90;;;;;;5021472;28;20351;-72
2023/01/19 10:46:54;;;;;;;15.35;1.80;;;3.80;99.90;;;;;;5035892;28;20048;-73
2023/01/19 10:49:27;;;;;;;12.52;1.40;;;4.10;99.90;;;;;;5019900;28;20087;-73
2023/01/19 10:51:56;;;;;;;18.70;1.90;;;3.90;99.90;;;;;;5037125;28;20075;-73
2023/01/19 10:54:23;;;;;;;19.30;2.30;;;3.90;99.90;;;;;;5036309;28;20056;-73
2023/01/19 10:56:58;;;;;;;10.30;1.48;;;4.20;99.90;;;;;;5030321;28;20041;-73
2023/01/19 10:59:49;;;;;;;17.27;2.13;;;4.00;99.90;;;;;;5034822;28;20051;-72
2023/01/19 11:02:27;;;;;;;9.77;1.20;;;4.10;99.90;;;;;;5034537;28;20102;-72
2023/01/19 11:04:55;;;;;;;14.48;2.33;;;4.10;99.90;;;;;;5035599;28;20145;-73
2023/01/19 11:07:31;;;;;;;16.05;2.22;;;4.70;99.90;;;;;;5035475;28;20139;-73
2023/01/19 11:10:16;;;;;;;12.82;2.08;;;4.20;99.90;;;;;;5018515;28;20075;-72
2023/01/19 11:13:06;;;;;;;14.50;2.60;;;4.90;99.90;;;;;;5051145;28;20433;-72
2023/01/19 11:15:41;;;;;;;12.48;1.48;;;5.00;99.90;;;;;;5023546;28;20049;-72
2023/01/19 11:18:07;;;;;;;16.67;1.50;;;4.40;99.90;;;;;;5028680;28;20094;-72
2023/01/19 11:20:54;;;;;;;18.73;2.42;;;4.60;99.90;;;;;;5055728;28;20131;-72
2023/01/19 11:23:32;;;;;;;10.63;2.15;;;4.50;99.90;;;;;;5033412;28;20045;-72
2023/01/19 11:26:00;;;;;;;12.73;2.28;;;4.50;99.90;;;;;;5035007;28;20045;-73
2023/01/19 11:28:34;;;;;;;12.18;2.28;;;4.50;99.90;;;;;;5039664;28;20120;-73
2023/01/19 11:31:02;;;;;;;9.52;1.33;;;4.70;99.90;;;;;;5039674;28;20135;-73
2023/01/19 11:33:40;;;;;;;14.32;1.98;;;4.70;99.90;;;;;;5054476;28;20056;-72
2023/01/19 11:36:20;;;;;;;11.98;1.95;;;4.60;99.90;;;;;;5022086;28;20766;-72
2023/01/19 11:38:55;;;;;;;13.82;2.08;;;4.70;99.90;;;;;;5052277;28;20164;-72
2023/01/19 11:41:34;;;;;;;11.32;1.48;;;4.70;99.90;;;;;;5036975;28;20102;-73
2023/01/19 11:44:26;;;;;;;7.07;1.08;;;4.80;99.90;;;;;;5042506;28;20082;-73
2023/01/19 11:47:01;;;;;;;8.75;1.55;;;4.80;99.90;;;;;;5023081;28;20044;-72
2023/01/19 11:49:55;;;;;;;13.25;1.77;;;4.80;99.90;;;;;;5036802;28;20511;-73
2023/01/19 11:52:44;;;;;;;16.75;2.30;;;4.80;99.90;;;;;;5030840;28;20036;-73
2023/01/19 11:55:36;;;;;;;9.25;1.30;;;4.90;99.90;;;;;;5036508;28;20044;-73
2023/01/19 11:58:03;;;;;;;;;;;4.90;99.90;;;;;;5037248;28;20056;-73
2023/01/19 12:00:49;;;;;;;7.95;1.02;;;4.90;99.90;;;;;;5029934;28;20585;-73
2023/01/19 12:03:31;;;;;;;9.50;1.00;;;4.90;99.90;;;;;;5036345;28;20059;-72
2023/01/19 12:06:05;;;;;;;10.13;1.30;;;5.00;99.90;;;;;;5030797;28;20054;-73
2023/01/19 12:08:40;;;;;;;13.57;1.10;;;5.00;99.90;;;;;;5033710;28;20048;-73
2023/01/19 12:11:09;;;;;;;9.55;1.05;;;5.00;99.90;;;;;;5015583;28;20053;-72
2023/01/19 12:13:36;;;;;;;8.75;1.33;;;5.00;99.90;;;;;;5018276;28;20512;-73
2023/01/19 12:16:10;;;;;;;13.38;1.55;;;5.00;99.90;;;;;;5014772;28;20049;-72
2023/01/19 12:18:41;;;;;;;12.93;2.58;;;4.90;99.90;;;;;;5033403;28;20040;-73
2023/01/19 12:21:07;;;;;;;10.98;1.05;;;5.00;99.90;;;;;;5036126;28;20185;-73
2023/01/19 12:23:41;;;;;;;13.85;1.15;;;5.00;99.90;;;;;;5030909;28;20040;-73
2023/01/19 12:26:36;;;;;;;7.88;1.02;;;5.00;99.90;;;;;;5053338;28;20055;-72
2023/01/19 12:29:10;;;;;;;11.27;1.27;;;5.00;99.90;;;;;;5022496;28;20048;-72
2023/01/19 12:31:37;;;;;;;7.28;1.20;;;5.10;99.90;;;;;;5034371;28;20052;-72
2023/01/19 12:34:26;;;;;;;7.80;1.00;;;5.00;99.90;;;;;;5037148;28;20049;-72
2023/01/19 12:36:56;;;;;;;9.60;1.50;;;5.10;99.90;;;;;;5049845;28;20124;-72
2023/01/19 12:39:24;;;;;;;6.20;1.10;;;5.10;99.90;;;;;;5048524;28;20098;-72
2023/01/19 12:42:06;;;;;;;8.73;0.95;;;5.10;99.90;;;;;;5036337;28;20053;-72
2023/01/19 12:44:33;;;;;;;10.80;1.15;;;5.10;99.90;;;;;;5036980;28;20185;-73
2023/01/19 12:47:16;;;;;;;9.40;0.93;;;5.10;99.90;;;;;;5054514;28;20047;-73
2023/01/19 12:50:02;;;;;;;12.38;0.98;;;5.10;99.90;;;;;;5022631;28;20045;-73
2023/01/19 12:52:40;;;;;;;4.97;0.88;;;5.00;99.90;;;;;;5055045;28;20127;-72
2023/01/19 12:55:11;;;;;;;7.40;1.35;;;5.10;99.90;;;;;;5025104;28;20553;-71
2023/01/19 12:57:49;;;;;;;7.63;0.93;;;4.90;99.90;;;;;;5041464;28;21920;-71
2023/01/19 13:00:20;;;;;;;12.18;2.50;;;5.00;99.90;;;;;;5055431;28;20052;-72
2023/01/19 13:02:48;;;;;;;7.05;0.95;;;5.00;99.90;;;;;;5026175;28;20127;-72
2023/01/19 13:05:29;;;;;;;10.90;1.55;;;5.00;99.90;;;;;;5057088;28;20032;-72
2023/01/19 13:08:01;;;;;;;5.50;1.00;;;4.90;99.90;;;;;;5041057;28;20062;-73
2023/01/19 13:10:58;;;;;;;13.15;1.15;;;4.40;99.90;;;;;;5041836;28;20311;-72
2023/01/19 13:13:29;;;;;;;14.00;1.30;;;4.90;99.90;;;;;;5057762;28;20044;-72
2023/01/19 13:16:16;;;;;;;11.90;1.38;;;4.90;99.90;;;;;;5039710;28;20032;-72
2023/01/19 13:18:42;;;;;;;7.75;1.15;;;4.80;99.90;;;;;;5027165;28;20139;-72